createdAt,value
2023-03-02T00:02:09.390Z,32.33
2023-03-02T00:04:56.941Z,30.80
2023-03-02T00:07:32.411Z,31.50
2023-03-02T00:09:59.004Z,31.40
2023-03-02T00:12:28.279Z,29.75
2023-03-02T00:14:55.723Z,29.40
2023-03-02T00:17:29.327Z,33.00
2023-03-02T00:20:11.701Z,30.20
2023-03-02T00:22:38.997Z,30.00
2023-03-02T00:25:05.687Z,32.00
2023-03-02T00:27:32.335Z,30.50
2023-03-02T00:29:59.025Z,30.00
2023-03-02T00:32:26.068Z,28.00
2023-03-02T00:34:53.130Z,29.40
2023-03-02T00:37:19.718Z,30.25
2023-03-02T00:39:46.326Z,29.00
2023-03-02T00:42:13.349Z,29.00
2023-03-02T00:44:40.334Z,29.60
2023-03-02T00:47:07.973Z,29.00
2023-03-02T00:49:37.053Z,29.25
2023-03-02T00:52:04.232Z,30.00
2023-03-02T00:54:30.815Z,30.00
2023-03-02T00:56:57.282Z,30.50
2023-03-02T00:59:26.913Z,30.00
2023-03-02T01:02:00.279Z,29.00
2023-03-02T01:04:31.351Z,31.60
2023-03-02T01:06:58.667Z,29.00
2023-03-02T01:09:25.534Z,30.00
2023-03-02T01:11:53.624Z,31.60
2023-03-02T01:14:20.339Z,31.00
2023-03-02T01:16:47.650Z,29.00
2023-03-02T01:19:15.334Z,30.60
2023-03-02T01:21:42.408Z,30.75
2023-03-02T01:24:09.594Z,31.40
2023-03-02T01:26:36.383Z,29.00
2023-03-02T01:29:03.420Z,32.75
2023-03-02T01:31:30.468Z,29.75
2023-03-02T01:33:57.052Z,29.00
2023-03-02T01:36:24.278Z,29.00
2023-03-02T01:38:51.170Z,30.50
2023-03-02T01:41:17.958Z,31.60
2023-03-02T01:43:45.531Z,28.60
2023-03-02T01:46:11.936Z,32.25
2023-03-02T01:48:43.622Z,30.20
2023-03-02T01:51:14.765Z,29.20
2023-03-02T01:53:49.050Z,30.00
2023-03-02T01:56:17.284Z,31.00
2023-03-02T01:58:44.473Z,30.00
2023-03-02T02:01:16.146Z,29.60
2023-03-02T02:03:49.055Z,29.20
2023-03-02T02:06:23.642Z,29.80
2023-03-02T02:08:51.248Z,30.50
2023-03-02T02:11:18.064Z,31.00
2023-03-02T02:13:45.032Z,30.40
2023-03-02T02:16:12.672Z,30.67
2023-03-02T02:18:40.131Z,31.00
2023-03-02T02:21:07.486Z,32.00
2023-03-02T02:23:34.657Z,31.50
2023-03-02T02:26:17.109Z,32.00
2023-03-02T02:28:44.061Z,31.00
2023-03-02T02:31:23.396Z,30.50
2023-03-02T02:33:51.949Z,30.67
2023-03-02T02:36:23.455Z,31.00
2023-03-02T02:38:51.781Z,30.25
2023-03-02T02:41:23.692Z,30.00
2023-03-02T02:43:51.978Z,31.00
2023-03-02T02:46:19.369Z,31.40
2023-03-02T02:48:46.010Z,31.25
2023-03-02T02:51:17.912Z,29.25
2023-03-02T02:53:59.468Z,30.00
2023-03-02T02:56:38.302Z,30.80
2023-03-02T02:59:07.192Z,29.75
2023-03-02T03:01:34.405Z,31.00
2023-03-02T03:04:03.768Z,30.00
2023-03-02T03:06:38.710Z,30.75
2023-03-02T03:09:09.319Z,31.00
2023-03-02T03:11:37.990Z,29.00
2023-03-02T03:14:08.093Z,31.25
2023-03-02T03:16:35.701Z,30.60
2023-03-02T03:19:08.700Z,31.00
2023-03-02T03:21:35.363Z,32.00
2023-03-02T03:24:02.425Z,30.00
2023-03-02T03:26:29.368Z,30.00
2023-03-02T03:28:57.813Z,31.00
2023-03-02T03:31:26.628Z,31.00
2023-03-02T03:33:54.520Z,29.50
2023-03-02T03:36:21.470Z,32.00
2023-03-02T03:38:49.006Z,31.00
2023-03-02T03:41:15.970Z,32.60
2023-03-02T03:43:42.580Z,31.00
2023-03-02T03:46:09.517Z,31.25
2023-03-02T03:48:36.102Z,31.00
2023-03-02T03:51:03.570Z,30.00
2023-03-02T03:53:30.326Z,30.00
2023-03-02T03:56:00.365Z,30.00
2023-03-02T03:58:27.080Z,30.00
2023-03-02T04:00:58.253Z,32.00
2023-03-02T04:03:25.610Z,31.25
2023-03-02T04:05:52.623Z,30.25
2023-03-02T04:08:19.871Z,30.75
2023-03-02T04:10:48.573Z,31.25
2023-03-02T04:13:15.330Z,30.00
2023-03-02T04:15:46.939Z,33.00
2023-03-02T04:18:15.406Z,30.50
2023-03-02T04:20:41.862Z,31.75
2023-03-02T04:23:08.480Z,32.50
2023-03-02T04:25:35.248Z,31.00
2023-03-02T04:28:02.030Z,31.20
2023-03-02T04:30:28.563Z,31.50
2023-03-02T04:32:57.589Z,32.00
2023-03-02T04:35:25.762Z,33.00
2023-03-02T04:37:52.863Z,32.00
2023-03-02T04:40:22.062Z,31.00
2023-03-02T04:42:48.989Z,31.00
2023-03-02T04:45:15.730Z,33.00
2023-03-02T04:47:42.623Z,31.25
2023-03-02T04:50:10.786Z,32.25
2023-03-02T04:52:37.470Z,31.00
2023-03-02T04:55:04.416Z,31.40
2023-03-02T04:57:31.367Z,32.00
2023-03-02T04:59:58.293Z,31.50
2023-03-02T05:02:25.117Z,31.50
2023-03-02T05:04:51.804Z,31.40
2023-03-02T05:07:18.353Z,33.00
2023-03-02T05:09:45.197Z,30.25
2023-03-02T05:12:13.250Z,35.50
2023-03-02T05:14:40.774Z,35.00
2023-03-02T05:17:16.910Z,37.00
2023-03-02T05:19:43.658Z,35.75
2023-03-02T05:22:10.322Z,34.25
2023-03-02T05:24:37.846Z,37.00
2023-03-02T05:27:05.081Z,38.00
2023-03-02T05:29:33.517Z,35.75
2023-03-02T05:32:01.629Z,33.00
2023-03-02T05:34:31.206Z,32.00
2023-03-02T05:36:58.481Z,32.40
2023-03-02T05:39:25.300Z,33.20
2023-03-02T05:41:53.529Z,32.20
2023-03-02T05:44:20.141Z,30.00
2023-03-02T05:46:46.770Z,30.25
2023-03-02T05:49:13.626Z,33.00
2023-03-02T05:51:40.078Z,34.60
2023-03-02T05:54:06.682Z,33.50
2023-03-02T05:56:33.470Z,34.00
2023-03-02T05:59:00.138Z,32.00
2023-03-02T06:01:26.740Z,33.00
2023-03-02T06:03:53.752Z,33.50
2023-03-02T06:06:20.341Z,34.75
2023-03-02T06:08:46.835Z,32.75
2023-03-02T06:11:13.548Z,30.00
2023-03-02T06:13:40.755Z,30.67
2023-03-02T06:16:07.721Z,34.00
2023-03-02T06:18:34.347Z,36.00
2023-03-02T06:21:01.223Z,35.50
2023-03-02T06:23:27.713Z,36.00
2023-03-02T06:25:54.209Z,34.00
2023-03-02T06:28:20.737Z,33.75
2023-03-02T06:30:48.769Z,33.25
2023-03-02T06:33:20.125Z,36.00
2023-03-02T06:35:47.220Z,36.00
2023-03-02T06:38:13.796Z,37.00
2023-03-02T06:40:40.259Z,36.75
2023-03-02T06:43:06.719Z,34.80
2023-03-02T06:45:34.114Z,37.00
2023-03-02T06:48:01.615Z,39.00
2023-03-02T06:50:28.734Z,44.80
2023-03-02T06:52:55.204Z,43.00
2023-03-02T06:55:21.764Z,41.50
2023-03-02T06:57:48.230Z,35.00
2023-03-02T07:00:17.878Z,33.25
2023-03-02T07:02:45.122Z,36.00
2023-03-02T07:05:11.879Z,33.00
2023-03-02T07:07:38.392Z,32.40
2023-03-02T07:10:06.502Z,36.60
2023-03-02T07:12:32.962Z,37.00
2023-03-02T07:14:59.457Z,41.25
2023-03-02T07:17:26.028Z,54.75
2023-03-02T07:19:52.430Z,40.40
2023-03-02T07:22:18.864Z,48.00
2023-03-02T07:24:45.313Z,38.50
2023-03-02T07:27:11.972Z,44.00
2023-03-02T07:29:38.449Z,46.80
2023-03-02T07:32:06.923Z,47.25
2023-03-02T07:34:33.374Z,43.50
2023-03-02T07:36:59.835Z,38.50
2023-03-02T07:39:26.294Z,33.00
2023-03-02T07:41:52.805Z,33.00
2023-03-02T07:44:19.297Z,33.00
2023-03-02T07:46:45.775Z,34.25
2023-03-02T07:49:12.298Z,32.75
2023-03-02T07:51:39.044Z,34.67
2023-03-02T07:54:05.523Z,35.00
2023-03-02T07:56:31.963Z,43.60
2023-03-02T07:58:58.712Z,40.50
2023-03-02T08:01:25.308Z,39.25
2023-03-02T08:03:51.839Z,36.00
2023-03-02T08:06:18.278Z,38.80
2023-03-02T08:08:44.735Z,31.00
2023-03-02T08:11:12.592Z,35.60
2023-03-02T08:13:39.315Z,36.20
2023-03-02T08:16:06.909Z,32.00
2023-03-02T08:18:33.796Z,32.00
2023-03-02T08:21:00.393Z,33.00
2023-03-02T08:23:27.194Z,31.50
2023-03-02T08:25:54.545Z,31.50
2023-03-02T08:28:21.901Z,31.00
2023-03-02T08:30:55.604Z,31.00
2023-03-02T08:33:22.149Z,31.00
2023-03-02T08:36:14.742Z,32.00
2023-03-02T08:38:41.733Z,32.00
2023-03-02T08:41:10.824Z,31.50
2023-03-02T08:43:37.307Z,31.75
2023-03-02T08:46:03.862Z,31.00
2023-03-02T08:48:30.994Z,31.50
2023-03-02T08:51:08.111Z,36.00
2023-03-02T08:53:36.660Z,38.25
2023-03-02T08:56:03.586Z,40.40
2023-03-02T08:58:30.088Z,64.00
2023-03-02T09:00:56.567Z,56.00
2023-03-02T09:03:23.025Z,62.50
2023-03-02T09:05:49.520Z,34.80
2023-03-02T09:08:15.961Z,45.25
2023-03-02T09:10:42.435Z,44.20
2023-03-02T09:13:08.900Z,40.00
2023-03-02T09:15:35.514Z,53.75
2023-03-02T09:18:02.035Z,45.00
2023-03-02T09:20:28.516Z,48.00
2023-03-02T09:22:54.986Z,39.00
2023-03-02T09:25:21.487Z,34.75
2023-03-02T09:27:47.942Z,45.80
2023-03-02T09:30:14.866Z,35.33
2023-03-02T09:32:41.608Z,45.50
2023-03-02T09:35:08.529Z,58.00
2023-03-02T09:37:37.409Z,101.25
2023-03-02T09:40:05.404Z,87.33
2023-03-02T09:42:47.569Z,46.00
2023-03-02T09:45:17.132Z,55.50
2023-03-02T09:47:43.552Z,90.25
2023-03-02T09:50:16.538Z,77.50
2023-03-02T09:52:50.717Z,58.75
2023-03-02T09:55:19.425Z,48.00
2023-03-02T09:57:47.225Z,48.00
2023-03-02T10:00:19.712Z,51.50
2023-03-02T10:02:52.774Z,64.00
2023-03-02T10:05:28.658Z,49.80
2023-03-02T10:07:57.866Z,49.40
2023-03-02T10:10:25.505Z,36.50
2023-03-02T10:12:51.937Z,42.60
2023-03-02T10:15:31.183Z,34.00
2023-03-02T10:17:57.692Z,33.75
2023-03-02T10:20:34.573Z,34.40
2023-03-02T10:23:08.309Z,37.33
2023-03-02T10:25:41.418Z,36.00
2023-03-02T10:28:17.364Z,36.25
2023-03-02T10:30:45.435Z,36.00
2023-03-02T10:33:13.755Z,35.00
2023-03-02T10:35:45.117Z,32.25
2023-03-02T10:38:13.806Z,33.00
2023-03-02T10:40:50.798Z,34.00
2023-03-02T10:43:20.203Z,33.00
2023-03-02T10:45:57.441Z,36.75
2023-03-02T10:48:24.323Z,31.00
2023-03-02T10:50:53.912Z,30.60
2023-03-02T10:53:20.382Z,32.00
2023-03-02T10:55:48.452Z,43.00
2023-03-02T10:58:31.438Z,33.75
2023-03-02T11:01:02.108Z,32.40
2023-03-02T11:03:29.249Z,38.50
2023-03-02T11:05:56.454Z,38.75
2023-03-02T11:08:22.972Z,44.00
2023-03-02T11:10:52.457Z,42.00
2023-03-02T11:13:20.756Z,52.20
2023-03-02T11:15:48.506Z,32.00
2023-03-02T11:18:14.955Z,31.00
2023-03-02T11:20:43.870Z,31.75
2023-03-02T11:23:29.087Z,33.80
2023-03-02T11:25:59.245Z,32.80
2023-03-02T11:28:28.956Z,36.00
2023-03-02T11:30:56.968Z,31.00
2023-03-02T11:33:30.214Z,30.80
2023-03-02T11:36:01.512Z,34.00
2023-03-02T11:38:41.104Z,29.25
2023-03-02T11:41:15.399Z,33.25
2023-03-02T11:43:41.882Z,31.40
2023-03-02T11:46:21.450Z,37.50
2023-03-02T11:48:50.743Z,32.60
2023-03-02T11:51:40.478Z,34.25
2023-03-02T11:54:14.059Z,47.00
2023-03-02T11:56:41.578Z,41.00
2023-03-02T11:59:13.353Z,42.00
2023-03-02T12:01:40.614Z,30.20
2023-03-02T12:04:11.729Z,32.00
2023-03-02T12:06:40.603Z,31.00
2023-03-02T12:09:31.328Z,43.00
2023-03-02T12:12:00.425Z,36.00
2023-03-02T12:14:37.039Z,29.67
2023-03-02T12:17:04.573Z,31.00
2023-03-02T12:19:39.726Z,31.00
2023-03-02T12:22:09.858Z,29.25
2023-03-02T12:24:37.842Z,34.00
2023-03-02T12:27:13.168Z,29.25
2023-03-02T12:29:39.609Z,28.00
2023-03-02T12:32:12.331Z,31.25
2023-03-02T12:34:41.847Z,29.00
2023-03-02T12:37:08.382Z,33.75
2023-03-02T12:39:34.843Z,29.00
2023-03-02T12:42:04.362Z,31.67
2023-03-02T12:44:33.610Z,27.75
2023-03-02T12:47:02.306Z,31.25
2023-03-02T12:49:38.448Z,30.20
2023-03-02T12:52:19.930Z,23.00
2023-03-02T12:54:47.588Z,26.00
2023-03-02T12:57:15.743Z,26.60
2023-03-02T12:59:42.965Z,26.40
2023-03-02T13:02:20.458Z,30.00
2023-03-02T13:04:57.302Z,23.20
2023-03-02T13:07:30.521Z,29.00
2023-03-02T13:09:57.931Z,25.60
2023-03-02T13:12:26.351Z,29.00
2023-03-02T13:14:54.338Z,31.00
2023-03-02T13:17:25.413Z,26.60
2023-03-02T13:19:52.135Z,27.50
2023-03-02T13:22:20.157Z,23.20
2023-03-02T13:24:49.811Z,21.75
2023-03-02T13:27:18.044Z,19.50
2023-03-02T13:29:45.696Z,25.25
2023-03-02T13:32:21.132Z,27.40
2023-03-02T13:35:10.378Z,22.75
2023-03-02T13:37:40.395Z,23.00
2023-03-02T13:40:26.909Z,20.00
2023-03-02T13:42:54.175Z,22.00
2023-03-02T13:45:25.437Z,22.00
2023-03-02T13:47:52.216Z,20.00
2023-03-02T13:50:20.304Z,19.40
2023-03-02T13:52:47.108Z,19.60
2023-03-02T13:55:14.911Z,21.00
2023-03-02T13:57:41.828Z,17.80
2023-03-02T14:00:34.773Z,17.00
2023-03-02T14:03:01.539Z,16.00
2023-03-02T14:05:33.310Z,15.40
2023-03-02T14:08:00.373Z,14.00
2023-03-02T14:10:27.041Z,18.40
2023-03-02T14:13:16.829Z,22.60
2023-03-02T14:15:49.060Z,21.75
2023-03-02T14:18:18.517Z,17.00
2023-03-02T14:20:44.933Z,19.00
2023-03-02T14:23:11.424Z,20.00
2023-03-02T14:25:37.912Z,22.50
2023-03-02T14:28:04.606Z,22.50
2023-03-02T14:30:31.053Z,20.00
2023-03-02T14:32:57.463Z,16.00
2023-03-02T14:35:25.114Z,17.00
2023-03-02T14:37:51.558Z,19.40
2023-03-02T14:40:21.507Z,20.00
2023-03-02T14:42:48.605Z,25.50
2023-03-02T14:45:15.066Z,21.40
2023-03-02T14:47:41.610Z,21.00
2023-03-02T14:50:09.186Z,19.50
2023-03-02T14:52:37.696Z,20.00
2023-03-02T14:55:28.587Z,23.00
2023-03-02T14:57:57.431Z,22.20
2023-03-02T15:00:24.337Z,20.00
2023-03-02T15:02:51.362Z,20.00
2023-03-02T15:05:18.656Z,19.00
2023-03-02T15:07:45.621Z,15.00
2023-03-02T15:10:16.768Z,18.75
2023-03-02T15:12:43.379Z,19.00
2023-03-02T15:15:10.175Z,17.50
2023-03-02T15:17:36.715Z,15.50
2023-03-02T15:20:03.688Z,15.00
2023-03-02T15:22:30.176Z,20.00
2023-03-02T15:24:56.670Z,20.40
2023-03-02T15:27:23.759Z,19.00
2023-03-02T15:29:50.507Z,19.60
2023-03-02T15:32:17.142Z,19.25
2023-03-02T15:34:43.952Z,17.75
2023-03-02T15:37:11.515Z,16.50
2023-03-02T15:39:38.176Z,15.00
2023-03-02T15:42:05.587Z,15.25
2023-03-02T15:44:32.082Z,18.00
2023-03-02T15:46:59.683Z,12.60
2023-03-02T15:49:28.607Z,15.00
2023-03-02T15:51:57.664Z,11.00
2023-03-02T15:54:27.543Z,13.00
2023-03-02T15:56:54.789Z,12.00
2023-03-02T15:59:22.627Z,13.60
2023-03-02T16:01:49.408Z,13.25
2023-03-02T16:04:15.916Z,14.00
2023-03-02T16:06:42.687Z,13.00
2023-03-02T16:09:10.342Z,12.75
2023-03-02T16:11:37.205Z,15.50
2023-03-02T16:14:04.109Z,21.00
2023-03-02T16:16:30.612Z,17.25
2023-03-02T16:18:58.249Z,12.20
2023-03-02T16:21:26.681Z,13.00
2023-03-02T16:23:53.505Z,13.00
2023-03-02T16:26:20.955Z,16.40
2023-03-02T16:28:47.849Z,13.25
2023-03-02T16:31:16.401Z,19.25
2023-03-02T16:33:43.730Z,16.00
2023-03-02T16:36:10.565Z,18.00
2023-03-02T16:38:37.646Z,18.20
2023-03-02T16:41:04.964Z,18.20
2023-03-02T16:43:31.517Z,20.00
2023-03-02T16:45:58.179Z,19.20
2023-03-02T16:48:24.983Z,23.00
2023-03-02T16:50:57.736Z,24.00
2023-03-02T16:53:24.627Z,28.00
2023-03-02T16:55:52.416Z,23.00
2023-03-02T16:58:19.045Z,25.00
2023-03-02T17:00:45.682Z,25.75
2023-03-02T17:03:12.422Z,28.00
2023-03-02T17:05:42.724Z,28.00
2023-03-02T17:08:10.611Z,20.75
2023-03-02T17:10:37.923Z,22.20
2023-03-02T17:13:04.673Z,21.50
2023-03-02T17:15:31.311Z,24.00
2023-03-02T17:17:58.236Z,24.00
2023-03-02T17:20:24.834Z,23.00
2023-03-02T17:22:51.417Z,22.00
2023-03-02T17:25:18.296Z,26.60
2023-03-02T17:27:45.284Z,22.50
2023-03-02T17:30:12.652Z,28.00
2023-03-02T17:32:39.707Z,27.75
2023-03-02T17:35:06.866Z,25.20
2023-03-02T17:37:33.852Z,22.75
2023-03-02T17:40:00.373Z,27.00
2023-03-02T17:42:27.353Z,23.75
2023-03-02T17:44:53.869Z,26.75
2023-03-02T17:47:20.451Z,28.00
2023-03-02T17:49:47.055Z,27.67
2023-03-02T17:52:14.432Z,28.25
2023-03-02T17:54:41.011Z,29.50
2023-03-02T17:57:07.770Z,34.00
2023-03-02T17:59:34.334Z,30.80
2023-03-02T18:02:02.113Z,33.50
2023-03-02T18:04:29.258Z,27.00
2023-03-02T18:06:55.864Z,31.75
2023-03-02T18:09:23.848Z,40.50
2023-03-02T18:11:50.391Z,32.00
2023-03-02T18:14:18.392Z,28.00
2023-03-02T18:16:45.080Z,34.00
2023-03-02T18:19:11.663Z,32.75
2023-03-02T18:21:40.004Z,39.00
2023-03-02T18:24:06.944Z,53.00
2023-03-02T18:26:33.421Z,46.00
2023-03-02T18:29:00.284Z,61.75
2023-03-02T18:31:26.851Z,34.00
2023-03-02T18:33:53.372Z,30.25
2023-03-02T18:36:20.004Z,32.60
2023-03-02T18:38:46.503Z,28.00
2023-03-02T18:41:13.841Z,31.00
2023-03-02T18:43:42.119Z,33.00
2023-03-02T18:46:17.763Z,32.00
2023-03-02T18:48:44.367Z,35.00
2023-03-02T18:51:10.775Z,38.40
2023-03-02T18:53:38.181Z,32.00
2023-03-02T18:56:04.749Z,41.00
2023-03-02T18:58:34.339Z,34.00
2023-03-02T19:01:01.500Z,28.80
2023-03-02T19:03:28.146Z,31.00
2023-03-02T19:05:57.606Z,29.75
2023-03-02T19:08:25.081Z,24.00
2023-03-02T19:10:52.411Z,28.00
2023-03-02T19:13:19.827Z,25.25
2023-03-02T19:15:46.925Z,27.00
2023-03-02T19:18:17.199Z,27.75
2023-03-02T19:20:47.442Z,26.50
2023-03-02T19:23:14.052Z,24.00
2023-03-02T19:25:40.604Z,26.00
2023-03-02T19:28:08.033Z,24.00
2023-03-02T19:30:35.549Z,26.75
2023-03-02T19:33:03.788Z,26.60
2023-03-02T19:35:30.489Z,26.00
2023-03-02T19:37:57.361Z,23.00
2023-03-02T19:40:25.550Z,23.50
2023-03-02T19:42:53.309Z,25.00
2023-03-02T19:45:38.322Z,23.25
2023-03-02T19:48:05.907Z,24.25
2023-03-02T19:50:32.449Z,24.25
2023-03-02T19:52:59.116Z,26.00
2023-03-02T19:55:25.902Z,26.75
2023-03-02T19:57:59.971Z,24.40
2023-03-02T20:00:27.579Z,28.60
2023-03-02T20:02:54.181Z,27.00
2023-03-02T20:05:20.695Z,27.60
2023-03-02T20:07:48.856Z,28.00
2023-03-02T20:10:26.052Z,30.00
2023-03-02T20:12:52.726Z,29.00
2023-03-02T20:15:19.223Z,28.40
2023-03-02T20:17:45.846Z,32.00
2023-03-02T20:20:12.388Z,31.75
2023-03-02T20:22:39.103Z,34.00
2023-03-02T20:25:06.426Z,32.00
2023-03-02T20:27:32.980Z,33.00
2023-03-02T20:29:59.684Z,29.00
2023-03-02T20:32:26.378Z,29.00
2023-03-02T20:34:53.026Z,28.25
2023-03-02T20:37:19.641Z,29.25
2023-03-02T20:39:48.028Z,29.25
2023-03-02T20:42:14.629Z,33.00
2023-03-02T20:44:41.358Z,32.00
2023-03-02T20:47:09.882Z,28.20
2023-03-02T20:49:37.676Z,29.80
2023-03-02T20:52:05.077Z,28.25
2023-03-02T20:54:34.401Z,28.25
2023-03-02T20:57:01.165Z,28.75
2023-03-02T20:59:30.434Z,29.50
2023-03-02T21:01:56.898Z,29.00
2023-03-02T21:04:23.643Z,30.25
2023-03-02T21:06:50.836Z,29.50
2023-03-02T21:09:18.119Z,29.00
2023-03-02T21:11:45.936Z,29.00
2023-03-02T21:14:14.263Z,29.00
2023-03-02T21:16:42.213Z,29.80
2023-03-02T21:19:09.885Z,29.00
2023-03-02T21:21:41.772Z,29.00
2023-03-02T21:24:12.883Z,30.00
2023-03-02T21:26:39.380Z,30.00
2023-03-02T21:29:05.952Z,29.00
2023-03-02T21:31:33.233Z,29.00
2023-03-02T21:34:00.825Z,30.00
2023-03-02T21:36:27.939Z,31.00
2023-03-02T21:38:54.641Z,31.75
2023-03-02T21:41:21.150Z,30.00
2023-03-02T21:43:49.039Z,29.50
2023-03-02T21:46:17.560Z,31.80
2023-03-02T21:48:44.926Z,34.00
2023-03-02T21:51:12.240Z,34.00
2023-03-02T21:53:38.650Z,29.50
2023-03-02T21:56:08.422Z,29.00
2023-03-02T21:58:34.934Z,29.00
2023-03-02T22:01:01.609Z,29.60
2023-03-02T22:03:28.056Z,29.00
2023-03-02T22:05:54.484Z,30.00
2023-03-02T22:08:21.726Z,29.00
2023-03-02T22:10:49.907Z,28.25
2023-03-02T22:13:22.889Z,29.50
2023-03-02T22:15:50.394Z,29.40
2023-03-02T22:18:21.492Z,30.33
2023-03-02T22:20:49.203Z,29.00
2023-03-02T22:23:17.213Z,30.00
2023-03-02T22:25:43.697Z,29.00
2023-03-02T22:28:24.514Z,29.00
2023-03-02T22:30:52.105Z,30.00
2023-03-02T22:33:20.450Z,29.00
2023-03-02T22:35:47.826Z,29.50
2023-03-02T22:38:22.535Z,29.00
2023-03-02T22:40:49.216Z,30.00
2023-03-02T22:43:36.201Z,31.00
2023-03-02T22:46:22.929Z,30.75
2023-03-02T22:48:50.493Z,30.40
2023-03-02T22:51:18.309Z,30.50
2023-03-02T22:53:50.743Z,31.33
2023-03-02T22:56:27.352Z,31.00
2023-03-02T22:58:54.419Z,32.50
2023-03-02T23:01:26.279Z,33.80
2023-03-02T23:03:54.734Z,34.00
2023-03-02T23:06:32.097Z,32.00
2023-03-02T23:09:04.160Z,32.50
2023-03-02T23:11:35.988Z,32.00
2023-03-02T23:14:07.289Z,32.00
2023-03-02T23:16:36.125Z,32.50
2023-03-02T23:19:02.760Z,33.25
2023-03-02T23:21:49.076Z,35.80
2023-03-02T23:24:20.384Z,33.00
2023-03-02T23:26:47.056Z,33.00
2023-03-02T23:29:13.489Z,32.00
2023-03-02T23:31:40.158Z,34.00
2023-03-02T23:34:06.765Z,33.00
2023-03-02T23:36:33.397Z,32.00
2023-03-02T23:39:00.004Z,32.00
2023-03-02T23:41:27.195Z,31.40
2023-03-02T23:43:53.927Z,34.75
2023-03-02T23:46:20.630Z,32.50
2023-03-02T23:48:48.019Z,32.00
2023-03-02T23:51:14.797Z,34.00
2023-03-02T23:53:42.666Z,35.00
2023-03-02T23:56:09.136Z,34.00
2023-03-02T23:58:35.634Z,31.33
